METARS
Date METAR Location Area
23/04/2014 LGY7 231730Z 15801KT 19/14 Q1011 Aegina Attica
23/04/2014 LGH5 231130Z 22502KT 26/13 Q1013 Ampelokipoi Attica
23/04/2014 LGS5 231730Z 13500KT 21/13 Q 992 Anavissos Attica
23/04/2014 LGO0 231630Z 09003KT 23/09 Q1011 Ano Liosia Attica
23/04/2014 LGB9 231730Z 04501KT 23/12 Q1012 Athens - Gazi Attica
23/04/2014 LGL5 231630Z 13501KT 20/11 Q1011 Ekali Attica
23/04/2014 LGS3 231730Z 22501KT 21/13 Q1011 Faliro Attica
23/04/2014 LGM3 231730Z 15801KT 20/14 Q1012 Hydra Attica
23/04/2014 LGI4 230700Z 00000G31104KT 203/146 Q10154 Hydra Attica
23/04/2014 LGO2 231630Z 13507KT 17/05 Q1011 Imittos Attica
23/04/2014 LGT8 231730Z 06800KT 16/09 Q1012 Ippokratios Attica
23/04/2014 LG99 231730Z 04500KT 18/13 Q1013 Kantza Attica
23/04/2014 LG13 231800Z 00000KT 20/10 Q1013 Kifissia Attica
23/04/2014 LGD6 231730Z 00004KT 20/14 Q1010 Lavrio Attica
23/04/2014 LGK0 231730Z 11304KT 20/11 Q1012 Marousi Attica
23/04/2014 LG00 231810Z 00000KT 19/09 Q1011 Marousi (Anavrita) Attica
23/04/2014 LGR0 231730Z 31500KT 22/13 Q1011 Nea Smirni Attica
23/04/2014 LGM8 231330Z 22500KT 25/15 Q1014 Neos Kosmos Attica
29/03/2014 LG04 282300Z 00000KT 146/72 Q10114 Paleo Faliro Attica
23/04/2014 LGA3 231810Z 00000KT 19/11 Q1012 Pallini - Kantza 2 Attica
20/04/2014 LGK3 201730Z 27005KT 10/05 Q1015 Parnitha 1230 EAA Attica
23/04/2014 LGT6 231730Z 04503KT 22/11 Q1012 Patissia Attica
23/04/2014 LGX9 231730Z 09006KT 19/09 Q1010 Penteli Attica
23/04/2014 LG67 231800Z 00000G2592KT 188/125 Q10123 Penteli Attica
23/04/2014 LG88 231809Z 22500G03KT 22/09 Q1011 BKN Peristeri Attica
23/04/2014 LGU0 231730Z 04501KT 23/12 Q1011 Peristeri Attica
23/04/2014 LGE6 231700Z 00000KT 191/123 Q10112 Porto Rafti Attica
23/04/2014 LGY6 231730Z 04501KT 19/15 Q1011 Porto Rafti Attica
23/04/2014 LG96 231730Z 11301KT 20/12 Q1012 Psychico Attica
23/04/2014 LGZ0 231730Z 27001KT 20/12 Q1011 Rafina Attica
23/04/2014 LGG2 231730Z 11301KT 19/12 Q1011 Spata Attica
15/04/2014 LGS6 151130Z 11308KT 18/13 Q1012 Spetses Attica
09/04/2014 LG18 090100Z 00000KT 133/100 Q10132 Terpsithea Attica
23/04/2014 LGZ2 231730Z 02305KT 21/13 Q1011 Vari Attica
23/04/2014 LGR6 231730Z 09000KT 19/10 Q1011 Vilia Attica
23/04/2014 LG74 230100Z 00000KT 168/131 Q10143 Ymittos Attica
23/04/2014 LGG1 231800Z 00000G3456KT 184/127 Q168 Kalivia Thorikou Attica E
23/04/2014 LG45 231730Z 04501KT 19/15 Q1013 Markopoulo Attica E
23/04/2014 LG72 231800Z 00000KT 184/124 Q10099 Keratea Attica SE
23/04/2014 LGW4 231730Z 06805KT 22/01 Q 991 Ag. Ioannis Sfakion Crete
23/04/2014 LGJ9 231730Z 18022KT 25/07 Q1011 Aghios Nikolaos Crete
23/04/2014 LGT4 231730Z 22503KT 29/05 Q1007 Alikianos Crete
23/04/2014 LGB6 231730Z 15812G29KT 23/05 Q1007 Anogeia Crete
17/04/2014 LGZ6 171030Z 13508KT RA 12/10 Q1008 Askyfou Crete
23/04/2014 LG25 231730Z 11317G28KT 26/03 Q1008 Chania Crete
23/04/2014 LGN3 231730Z 13511G26KT 29/03 Q1008 Chania Center Crete
23/04/2014 LG61 231730Z 02313KT 25/06 Q1010 Cost - Irakleio Crete
23/04/2014 LGL9 231730Z 13507G23KT 31/04 Q1007 Falasarna Crete
23/04/2014 LGL1 231730Z 18008G23KT 26/04 Q1009 Fourfouras Crete
23/04/2014 LGD4 231730Z 18021KT 27/03 Q1009 Fragmapotamon - Rethymno Crete
23/04/2014 LG30 231730Z 18011G22KT 27/02 Q1010 Heraklion - Knossos Crete
23/04/2014 LG95 231730Z 11306KT 20/17 Q1014 Ierapetra Crete
23/04/2014 LGP0 231730Z 06807KT 25/06 Q1011 Lentas Hrakleion Crete
17/04/2014 LGD7 171130Z 13512G23KT 16/13 Q1006 Metaxochori - Heraklion Crete
23/04/2014 LGI2 231630Z 06804KT 26/06 Q1012 Mires Crete
23/04/2014 LG36 231730Z 11312KT 23/12 Q1009 Paleochora Crete
23/04/2014 LG58 231730Z 13509KT 29/06 Q1008 Rethymno Crete
19/04/2014 LGT2 191930Z 24801KT 14/10 Q1016 Rethymno - Plakia Crete
21/04/2014 LGY1 211730Z 00000KT 16/10 Q1017 Samaria Crete
23/04/2014 LGB4 231730Z 22515G37KT 19/01 Q1009 Samaria Crete
23/04/2014 LGM2 231730Z 13506G19KT 24/07 Q1012 Sitia Crete
23/04/2014 LG75 231730Z 18009G20KT 26/02 Q1011 Spili - Rethymnon Crete
23/04/2014 LG50 231730Z 18002KT 23/06 Q1011 Tzermiado Lasithi Crete
23/04/2014 LG70 231730Z 13504G15KT 26/03 Q1009 Vrysses Crete
23/04/2014 LGT5 231730Z 00010KT 24/08 Q1012 Amorgos Cyclades
23/04/2014 LGN6 231730Z 00000KT 19/15 Q1012 Andros Cyclades
05/04/2014 LGS7 051430Z 13510KT 18/14 Q1012 Donoussa Cyclades
23/04/2014 LGI0 231730Z 15812KT 26/08 Q1012 Ios Cyclades
23/04/2014 LGP2 231730Z 04502KT 21/11 Q1014 Ioulida - Kea Cyclades
23/04/2014 LGP5 231730Z 09006KT 21/14 Q1013 Iraklia Cyclades
23/04/2014 LGE3 231630Z 00003KT 21/12 Q1012 Kea Cyclades
23/04/2014 LGX8 231730Z 04501KT 21/12 Q1013 Koufonissia Cyclades
23/04/2014 LGS0 231730Z 11307KT 21/13 Q1011 Milos Cyclades
23/04/2014 LG66 231730Z 13515KT 22/13 Q1012 Mykonos Cyclades
23/04/2014 LGM0 231730Z 33803KT 21/15 Q1012 Naxos Cyclades
23/04/2014 LGV3 231730Z 13503KT 18/06 Q1008 Naxos - Apiranthos Cyclades
23/04/2014 LGT0 231730Z 11311KT 24/07 Q1013 Naxos - Apollonas Cyclades
23/04/2014 LGU1 231730Z 29301KT 25/05 Q1012 Naxos - Damarionas Cyclades
23/04/2014 LGU2 231730Z 22505KT 19/07 Q1013 Naxos - Koronos Cyclades
23/04/2014 LGN7 231730Z 11305KT 23/06 Q1013 Naxos - Kynidaros Cyclades
23/04/2014 LGW1 231730Z 29301KT 25/04 Q1011 Naxos - Melanes Cyclades
23/04/2014 LGO7 231730Z 13507KT 24/08 Q1011 Naxos - Mikri Vigla Cyclades
17/04/2014 LG02 170830Z 27001KT +RA 15/13 Q1009 Paros Cyclades
23/04/2014 LGX5 231730Z 09006KT 19/14 Q1011 Santorini Cyclades
23/04/2014 LGX7 231730Z 09007KT 21/12 Q1013 Schinoussa Cyclades
23/04/2014 LG07 231730Z 00000KT 224/62 Q10097 Tinos Cyclades
23/04/2014 LGB8 231730Z 06804KT 22/11 Q1013 Tinos NOA Cyclades
23/04/2014 LGAB 231650Z 0674320G5238KT 198/116 Q10135 Emponas - Rhodes Dodecanese
23/04/2014 LGG6 231630Z 15800KT 22/14 Q1015 Kalymnos Dodecanese
23/04/2014 LGAC 231800Z 1121728G6102KT 189/165 Q182 Kattavia - Rhodes Dodecanese
23/04/2014 LGAA 231800Z 3371728G2592KT 192/172 Q10175 Lindos - Rhodes Dodecanese
23/04/2014 LG65 231730Z 11305KT 20/15 Q1014 Patmos Dodecanese
23/04/2014 LGS9 231730Z 11303KT 19/17 Q1016 Rhodes Dodecanese
23/04/2014 LGM5 231730Z 29301KT 23/09 Q1013 Kasos Dodecanisa
23/04/2014 LGX1 231730Z 22501KT 21/13 Q1014 Kos Dodekanissa
23/04/2014 LGT1 231730Z 00000KT 21/14 Q1013 Fournoi East Aegean
23/04/2014 LGI9 231730Z 15814G29KT 21/04 Q1011 Ikaria East Aegean
23/04/2014 LGI5 231730Z 00002KT 19/15 Q1012 Lemnos East Aegean
23/04/2014 LGI6 231630Z 13501KT 22/15 Q1012 Lesvos East Aegean
23/04/2014 LGJ3 231730Z 00000KT 21/16 Q1014 Lesvos - Thermi East Aegean
23/04/2014 LGZ7 231730Z 20301KT 21/14 Q1013 Mantamados East Aegean
23/04/2014 LGY5 231630Z 11310KT 24/10 Q1015 Molyvos East Aegean
23/04/2014 LGF1 231730Z 15803KT 23/09 Q1013 Samos East Aegean
23/04/2014 LGW7 231730Z 11310KT 21/09 Q1008 Akrotirio Paksimada Evia
23/04/2014 LGO3 231730Z 11303KT 19/13 Q1010 Chalkida Evia
23/04/2014 LGR5 231630Z 00001KT 17/13 Q1012 Kavodoro Evia
09/04/2014 LGY0 090700Z 11300KT 09/05 Q1034 Krieza Evia
23/04/2014 LGX0 231730Z 27001KT 16/13 Q1014 Kymi Evia
25/03/2014 LGT7 251000Z 27004KT 09/07 Q1011 Setta Evia
23/04/2014 LG81 231730Z 00001KT 19/08 Q1011 Steni Evia
23/04/2014 LGC4 231730Z 09009KT 17/15 Q1013 Styra Evia
23/04/2014 LGD3 231730Z 06802KT 16/14 Q1013 Zarakes Evia
23/04/2014 LGP6 231730Z 09006KT 21/09 Q1007 Agia Kyriaki Ioanninon Hepirus
22/04/2014 LGO1 221430Z 11302KT 22/16 Q1014 Aridaia Hepirus
23/04/2014 LGD2 231730Z 13504G15KT 26/09 Q1005 Arta - Kompoti Hepirus
23/04/2014 LG38 231730Z 00000KT 25/10 Q1005 Arta - Vlacherna Hepirus
23/04/2014 LGE4 231030Z 11311KT 20/07 Q1010 Aspraggeloi Hepirus
23/04/2014 LGI3 231730Z 22504KT 20/08 Q1005 Derviziana Hepirus
23/04/2014 LGP4 231730Z 13510G25KT 20/06 Q1004 Dodoni Hepirus
02/04/2014 LGL8 021430Z 02304KT 24/07 Q1015 Grammos Hepirus
23/04/2014 LG43 231730Z 20306G17KT 23/12 Q1004 Igoumenitsa Hepirus
23/04/2014 LG49 231730Z 06806KT 20/11 Q1004 Ioannina Anatoli Hepirus
10/04/2014 LGK1 100130Z 24800KT 15/13 Q1011 Kanali, Preveza Hepirus
23/04/2014 LGE0 231730Z 18006KT 20/06 Q1006 Katarraktis - Arta Hepirus
17/04/2014 LGO5 172130Z 13503KT 02/01 Q1007 Kerasovo Konitsa Hepirus
14/04/2014 LGO8 141330Z 18003KT 12/03 Q1013 Metsovo Hepirus
23/04/2014 LGK6 231730Z 33801KT 17/08 Q1006 Papigo Hepirus
23/04/2014 LGF6 231430Z 04516G34KT 24/07 Q1005 Paramythia Hepirus
23/04/2014 LGK9 231730Z 22505KT 21/14 Q1007 Parga Hepirus
23/04/2014 LGK7 231630Z 18006KT 22/06 Q1006 Pesta Hepirus
23/04/2014 LGY9 231730Z 06806KT 13/09 Q1004 Plikati Ioanninon Hepirus
23/04/2014 LGP1 231730Z 06807KT 18/09 Q1006 Pramanta Hepirus
23/04/2014 LGK2 231630Z 11303KT 16/10 Q1009 Theodoriana, Arta Hepirus
23/04/2014 LGD0 231730Z 11307G18KT 15/10 Q1006 Tristeno - Ioannina Hepirus
23/04/2014 LGM4 231730Z 15805KT 23/09 Q1005 Tyria Hepirus
23/04/2014 LGR8 231730Z 31505KT 19/09 Q1007 Vourgareli Artas Hepirus
23/04/2014 LGN9 231630Z 18004KT 16/09 Q1009 Vovoussa Hepirus
23/04/2014 LGN0 231730Z 18002KT 19/07 Q1005 Zitsa Hepirus
23/04/2014 LGJ2 231730Z 13509KT 20/15 Q1004 Corfu - Gouvia Ionio
23/04/2014 LGB0 231630Z 13511G22KT 21/15 Q1005 Ithaki Ionio
23/04/2014 LGI7 231730Z 13516G28KT 22/15 Q1007 Lefkada Ionio
23/04/2014 LGN1 231730Z 27003G14KT 19/15 Q1004 Paxoi Ionio
23/04/2014 LGN4 231730Z 18005KT 18/16 Q1006 Zakynthos Ionio
23/04/2014 LGE8 231730Z 00005G17KT 09/08 Q1012 3-5 Pigadia Macedonia
23/04/2014 LGG9 231730Z 06805KT 14/11 Q1009 Amynteo Macedonia
23/04/2014 LG33 231730Z 13505KT 16/09 Q1013 Chalkidiki - Polygyros Macedonia
23/04/2014 LGJ1 231730Z 22501KT 18/14 Q1015 Chalkidiki - Stratoni Macedonia
23/04/2014 LGZ5 231730Z 04504KT 20/16 Q1015 Didymoteicho Macedonia
23/04/2014 LG55 231730Z 00000KT 16/14 Q1012 Dion Macedonia
23/04/2014 LGU8 231730Z 15800KT 18/15 Q1014 Doxato - Drama Macedonia
23/04/2014 LGH3 231750Z 10101KT 17/14 Q1014 Drama Macedonia
23/04/2014 LGH6 231730Z 13502KT 18/15 Q1013 Drama 2 Macedonia
23/04/2014 LGY3 231730Z 22504KT 19/13 Q1015 Eleutheroupoli Macedonia
27/03/2014 LGJ6 272050Z 15916G27KT 02/02 Q1009 Falakro Macedonia
23/04/2014 LG63 231730Z 13504KT 15/12 Q1013 Florina Macedonia
23/04/2014 LGZ8 231730Z 13502KT 19/14 Q1014 Fotolivos Macedonia
21/04/2014 LG73 210130Z 24800KT 11/09 Q1013 Giannitsa Macedonia
23/04/2014 LGF2 231730Z 22500KT 16/13 Q1010 Grevena Macedonia
23/04/2014 LGO4 231730Z 09007KT 13/12 Q1014 Hmathia - Rizomata Macedonia
22/04/2014 LG93 221130Z 22510KT 08/02 Q1019 Kaimaktsalan Macedonia
27/03/2014 LGN8 272050Z 19217G43KT 32/29 Q979 Kartakla - Falakro Macedonia
23/04/2014 LGO9 231730Z 06805KT 18/14 Q1013 Kassandreia (Xalkidiki) Macedonia
15/04/2014 LGC0 150230Z 24802KT 08/04 Q1010 Kastoria Macedonia
23/04/2014 LG27 231750Z 04102KT 20/13 Q1015 Kavala - Dexameni Macedonia
05/04/2014 LGA2 052147Z 00000KT 01/00 Q1022 Kavala - Eleftheroupoli Macedonia
23/04/2014 LG42 231730Z 02303KT 17/15 Q1012 Kilkis Macedonia
23/04/2014 LGW8 231730Z 20300KT 19/15 Q1014 Kimisi Macedonia
23/04/2014 LGJ4 231730Z 29304KT 14/12 Q1012 Kozani - Ardassa Macedonia
23/04/2014 LGP3 231730Z 11304KT 12/06 Q1013 Lailias - Serres Macedonia
23/04/2014 LGZ9 231730Z 29303KT 15/13 Q1010 Mavropigi Macedonia
23/04/2014 LG40 231730Z 18000KT 16/13 Q1013 Naousa Macedonia
23/04/2014 LGZ4 231730Z 09001KT 19/14 Q1013 Neos Marmaras Macedonia
23/04/2014 LG48 231730Z 18002KT 16/13 Q 0 Nevrokopi Drama Macedonia
23/04/2014 LGS4 231730Z 31503KT 14/12 Q1009 Notio Pedio - Eordea Macedonia
23/04/2014 LGW0 230630Z 11302KT 14/13 Q1018 Paranesti Macedonia
23/04/2014 LG26 231730Z 31501KT 14/12 Q1009 Ptolemaida Macedonia
23/04/2014 LG87 231730Z 00001KT 08/07 Q1011 Seli Ski Center Macedonia
23/04/2014 LGW6 231730Z 00001KT 18/15 Q1015 Serres Macedonia
23/04/2014 LGD9 231730Z 00000KT 18/15 Q1014 Serres - Kerkini Macedonia
23/04/2014 LG14 230100Z 00000G31104KT 136/116 Q10175 Serres - Proti Macedonia
07/04/2014 LGY8 071419Z 31505KT 9999 SCT036 10/00 Q1010 Thassos Macedonia
23/04/2014 LGR9 231730Z 00000KT 17/14 Q1013 Thessaloniki Macedonia
23/04/2014 LGF0 231730Z 06801KT 14/12 Q1011 Variko Macedonia
23/04/2014 LG82 231630Z 09006G17KT 08/07 Q1009 Vassilitsa Macedonia
09/04/2014 LGC2 091330Z 31502KT 24/13 Q1010 Vatopedi - Athos Macedonia
23/04/2014 LGE9 231730Z 09008KT 15/11 Q1014 Vegoritida Macedonia
23/04/2014 LGE5 231730Z 11300KT 18/15 Q1011 Veroia Macedonia
23/04/2014 LG98 231730Z 06805KT 11/09 Q1009 Vlasti - Kozani Macedonia
23/04/2014 LGF5 231801Z 09702KT 14/09 Q1014 Vounochori - Kavala Macedonia
23/04/2014 LGU5 231730Z 06807KT 20/12 Q1009 Agioi Theodoroi Peloponissos
23/04/2014 LGU7 231730Z 18002KT 20/06 Q1007 Alagonia - Messinia Peloponissos
23/04/2014 LG52 231730Z 20316KT 20/14 Q1007 Amaliada Peloponissos
23/04/2014 LG77 231730Z 27006G26KT 19/10 Q1005 Andritsaina Peloponissos
23/04/2014 LGU6 231730Z 18002KT 22/12 Q1010 Arfara - Messinia Peloponissos
23/04/2014 LGT3 231730Z 22500KT 20/12 Q1010 Argos Peloponissos
17/04/2014 LGA8 172100Z 00000KT 00/00 Q 0 Chalandritsa Peloponissos
23/04/2014 LGV0 231730Z 11307KT 23/12 Q1007 Derveni Peloponissos
28/03/2014 LGK4 280730Z 15801KT -RA 03/02 Q1021 Elati Peloponissos
23/04/2014 LGC3 231730Z 11307KT 19/08 Q1007 Foloi - Ilia Peloponissos
20/04/2014 LGX6 200030Z 06803KT 11/08 Q1016 Geraki Peloponissos
20/04/2014 LGB7 200430Z 20303KT 15/11 Q1014 Ilia - Vartholomio Peloponissos
23/04/2014 LG85 231730Z 13517KT 22/13 Q1010 Isthmos Peloponissos
23/04/2014 LGV7 231730Z 15803KT 21/05 Q1008 Kalavryta Peloponissos
23/04/2014 LGZ3 231730Z 13506KT 24/10 Q1007 Kardamyli Peloponissos
23/04/2014 LGJ5 231730Z 18023KT 19/16 Q1008 Katakolo Peloponissos
23/04/2014 LGP7 231730Z 11302KT 21/05 Q1007 08 Kato Vlassia Peloponissos
27/03/2014 LGB2 272000Z 20301KT 27/23 Q1011 Katoachaia Peloponissos
23/04/2014 LGB5 231630Z 00001KT 21/12 Q1010 Kavomalias Peloponissos
04/10/2014 LG17 192200Z 3371728G4320KT 151/97 Q10128 Kipoupoli Kalamata Peloponissos
23/04/2014 LGM7 231730Z 11310KT 19/13 Q1010 Kranidi Peloponissos
23/04/2014 LGV1 231730Z 18011G24KT 23/11 Q1007 Kyparissia Peloponissos
23/04/2014 LGW9 231730Z 22506KT 18/05 Q1007 Lagadia Peloponissos
17/04/2014 LG92 172230Z 18002KT 10/07 Q1005 Lappa-Larissos-Achaia Peloponissos
07/04/2014 LG91 070630Z 00000KT 21/15 Q1012 Lousika-Olenias-Achaia Peloponissos
23/04/2014 LGV4 231730Z 11302KT 19/07 Q1013 Lykochia Peloponissos
23/04/2014 LGG5 231730Z 18003KT 20/10 Q1009 Megalopoli Peloponissos
23/04/2014 LGV2 231730Z 15807KT 22/08 Q1006 Messinia - Kopanaki Peloponissos
23/04/2014 LGF8 231730Z 00001KT 21/13 Q1009 Molaoi Peloponissos
23/04/2014 LG56 231730Z 20304KT 19/16 Q1010 Monemvasia Peloponissos
23/04/2014 LGE1 231730Z 11302KT 20/11 Q1009 Nemea Peloponissos
23/04/2014 LGD5 231730Z 20303KT 22/12 Q1008 Oleni - Ilia Peloponissos
23/04/2014 LGB3 231730Z 20301KT 25/10 Q1007 Olympia Peloponissos
23/04/2014 LGV6 231730Z 11314KT 12/04 Q1007 Panachaiko Oros Peloponissos
23/04/2014 LGZ1 231730Z 11310KT 25/09 Q1005 Patra Peloponissos
22/04/2014 LG79 221700Z 00000KT 207/161 Q10145 Patra - Agia Peloponissos
23/04/2014 LG71 231800Z 000864G7830KT 234/127 Q10071 Patra - Drosia Peloponissos
23/04/2014 LG84 231730Z 00010KT 24/15 Q1006 Patra - Port Peloponissos
23/04/2014 LG59 231730Z 22504KT 21/15 Q1007 Pirgos Peloponissos
23/04/2014 LGH8 231730Z 09010G23KT 24/11 Q1007 Rio Peloponissos
23/04/2014 LGT9 231730Z 27000KT 25/08 Q1005 Romanos - Patra Peloponissos
16/04/2014 LGA0 160830Z 00012G23KT RA 15/13 Q1006 Sagaiika Peloponissos
23/04/2014 LGF7 231730Z 11303KT 21/12 Q1010 Sparti Peloponissos
23/04/2014 LGS2 231730Z 22503KT 17/06 Q1012 Stemnitsa Peloponissos
23/04/2014 LGR1 231730Z 15807KT 15/07 Q1006 Trikala Korinthias Peloponissos
23/04/2014 LG83 231730Z 09005KT 18/09 Q1010 Tripoli Peloponissos
23/04/2014 LGU9 231730Z 20303KT 17/05 Q1008 Vytina Peloponissos
23/04/2014 LG86 231730Z 18007KT 23/11 Q1007 Zaxaro Peloponissos
23/04/2014 LGN2 231730Z 31501KT 17/15 Q1015 Alonissos Sporades
23/04/2014 LGI1 231730Z 18002KT 20/13 Q1013 Skyros Sporades
23/04/2014 LGH9 231730Z 11303KT 22/11 Q1009 Agrinio Sterea Ellada
23/04/2014 LGC7 231730Z 22514KT 24/14 Q1008 Aitoliko Sterea Ellada
23/04/2014 LG29 231730Z 06803KT 18/13 Q1009 Amfiklia Sterea Ellada
23/04/2014 LGH1 230600Z 00000KT 156/106 Q10141 Amfiklia 2 Sterea Ellada
17/04/2014 LGG8 170830Z 18003KT 13/05 Q1011 Antikira Sterea Ellada
23/04/2014 LG97 231810Z 09013KT 19/05 Q1008 Arachova Sterea Ellada
23/04/2014 LGC5 231730Z 06810KT 19/06 Q1011 Arahova Sterea Ellada
23/04/2014 LGH0 231730Z 00000KT 19/14 Q1010 Avlida Sterea Ellada
23/04/2014 LGR2 231730Z 24806KT 20/08 Q1008 Dam of Mornos Sterea Ellada
23/04/2014 LGR3 231730Z 09000KT 17/10 Q1009 Diakopi of Lidoriki Sterea Ellada
23/04/2014 LGW5 231730Z 13501KT 15/13 Q1010 Domokos Sterea Ellada
14/04/2014 LG21 141323Z 24804KT 29/15 Q1014 Evia - Chalkida Sterea Ellada
01/04/2014 LGL3 010600Z 09009KT 03/M01 Q1011 Fterolaka Sterea Ellada
23/04/2014 LGY4 231730Z 13518KT 20/12 Q1010 Galaxidi Sterea Ellada
23/04/2014 LGC8 230300Z 00000KT 148/128 Q10106 Gavalou - Aitol/nia Sterea Ellada
21/04/2014 LGJ7 211930Z 24802KT 18/08 Q1013 Kaparelli Sterea Ellada
23/04/2014 LGC9 231730Z 20305KT 16/11 Q1009 Karpenisi Sterea Ellada
23/04/2014 LGP9 231730Z 00000KT 18/13 Q1009 Kleidi Viotias Sterea Ellada
23/04/2014 LGR4 231730Z 22505KT 20/05 Q1009 Koniakos of Lidoriki Sterea Ellada
23/04/2014 LGV9 231630Z 09008KT 17/15 Q1010 Lamia Sterea Ellada
23/04/2014 LGJ8 231730Z 13501KT 18/14 Q1009 Lefkochori Sterea Ellada
23/04/2014 LGI8 231630Z 09002KT 20/13 Q1012 Livadeia Sterea Ellada
23/04/2014 LGE7 231730Z 09006KT 18/15 Q1009 Makrakomi Sterea Ellada
23/04/2014 LGA6 231730Z 06806KT 12/11 Q1008 Mavrolithari - Vardousia Sterea Ellada
23/04/2014 LGK8 231730Z 06807G18KT 12/10 Q1007 Myriki Sterea Ellada
23/04/2014 LGG4 231730Z 13503KT 18/06 Q1007 Orini Nafpaktia Sterea Ellada
01/04/2014 LGA4 010700Z 09009KT -SN 02/M02 Q1009 Parnassos Sterea Ellada
27/03/2014 LGF9 271530Z 00000KT 03/02 Q1011 Parnassos1950 Sterea Ellada
23/04/2014 LGL0 231730Z 11300KT 18/15 Q1010 Polydroso Sterea Ellada
07/04/2014 LGR7 071230Z 04508KT 11/09 Q1025 Prasino - Viotia Sterea Ellada
23/04/2014 LG69 231730Z 09000KT 18/13 Q1011 Tanagra Sterea Ellada
23/04/2014 LGO6 231730Z 04506KT 17/15 Q1011 Theologos Sterea Ellada
23/04/2014 LG94 231730Z 00000KT 149/138 Q10140 Hortiatis Thes/niki
23/04/2014 LG15 231811Z 34102KT 20/03 Q1013 Kamara Thes/niki Thes/niki
23/04/2014 LGA5 231730Z 06803KT 17/14 Q1013 Lagadas Thes/niki
24/03/2014 LG11 240730Z 12901KT 10/06 Q1006 West Thes/niki Thes/niki
23/04/2014 LGV5 231430Z 11308KT 23/09 Q1006 Tsamantas Thesprotia
23/04/2014 LGL4 231730Z 09003KT 13/10 Q1010 Gardiki Thessalia
23/04/2014 LGW3 231730Z 15801KT 18/14 Q1009 Kalabaka Thessalia
23/04/2014 LG41 231750Z 0906102G16524KT 174/127 Q10093 Larissa Thessalia
23/04/2014 LGL6 231730Z 06804KT 18/13 Q1010 Larissa Thessalia
23/04/2014 LGU3 231340Z 225864G3456KT 192/142 Q10119 Larissa Thessalia
23/04/2014 LGS8 231730Z 06809G23KT 16/12 Q1012 Larissa - Agia Thessalia
28/03/2014 LGL7 282230Z 24812KT 16/05 Q1014 Limni Plastira Thessalia
26/03/2014 LGU4 260700Z 29304KT 04/M07 Q1013 Olympos Thessalia
23/04/2014 LGE2 231630Z 33803KT 12/10 Q1009 Pertouli Thessalia
23/04/2014 LGY2 231730Z 15809KT 20/10 Q1010 Portaria - Pelio Thessalia
23/04/2014 LG80 231730Z 04503KT 17/15 Q1014 Skopelos - Sporades Thessalia
23/04/2014 LG24 231730Z 00005KT 16/15 Q1012 Sporades - Skiathos Thessalia
23/04/2014 LG57 231730Z 09001KT 18/14 Q1010 Trikala Thessalia
23/04/2014 LG51 231730Z 27003KT 18/16 Q1010 Volos Thessalia
23/04/2014 LGG3 231630Z 31500KT 14/12 Q1015 Zagora EAA Thessalia
23/04/2014 LGD8 231730Z 04503KT 20/17 Q1015 Alexandroupolis Thraki
15/04/2014 LGM9 150030Z 15811KT 15/13 Q1006 Imeros Thraki
23/04/2014 LG35 231810Z 08202KT 20/16 Q1013 Komotini Thraki
23/04/2014 LGL2 231730Z 00000KT 20/16 Q1015 Metaxades - Evros Thraki
23/04/2014 LG31 231730Z 18000KT 21/15 Q1014 Orestiada Thraki
23/04/2014 LGC1 231730Z 09000KT 21/14 Q1014 Samothraki Thraki
23/04/2014 LGC6 231730Z 00001KT 20/16 Q1013 Xanthi Thraki
www.meteorologia.gr